createdAt,value
2022-10-05T00:00:56.588Z,66.04
2022-10-05T00:05:59.219Z,65.92
2022-10-05T00:11:03.427Z,66.14
2022-10-05T00:16:13.874Z,66.44
2022-10-05T00:21:20.845Z,66.64
2022-10-05T00:26:27.033Z,66.65
2022-10-05T00:31:33.518Z,66.80
2022-10-05T00:36:36.253Z,67.03
2022-10-05T00:41:56.323Z,67.19
2022-10-05T00:47:11.933Z,67.23
2022-10-05T00:52:24.883Z,67.33
2022-10-05T00:57:39.794Z,67.37
2022-10-05T01:02:53.138Z,67.56
2022-10-05T01:08:04.146Z,67.64
2022-10-05T01:13:17.888Z,67.72
2022-10-05T01:18:26.296Z,67.75
2022-10-05T01:23:47.226Z,67.92
2022-10-05T01:28:55.692Z,67.92
2022-10-05T01:34:11.725Z,68.03
2022-10-05T01:39:21.303Z,68.09
2022-10-05T01:44:33.270Z,68.15
2022-10-05T01:49:39.539Z,68.08
2022-10-05T01:54:57.735Z,68.36
2022-10-05T02:00:08.640Z,68.44
2022-10-05T02:05:22.434Z,68.48
2022-10-05T02:10:29.745Z,68.56
2022-10-05T02:15:41.504Z,68.71
2022-10-05T02:20:45.207Z,68.61
2022-10-05T02:25:50.418Z,68.71
2022-10-05T02:31:02.281Z,68.85
2022-10-05T02:36:14.898Z,68.86
2022-10-05T02:41:28.732Z,68.90
2022-10-05T02:46:37.809Z,69.06
2022-10-05T02:51:51.912Z,69.17
2022-10-05T02:57:02.094Z,69.25
2022-10-05T03:02:15.751Z,69.36
2022-10-05T03:07:23.980Z,69.38
2022-10-05T03:12:43.018Z,69.46
2022-10-05T03:17:54.223Z,69.55
2022-10-05T03:23:01.169Z,69.44
2022-10-05T03:28:13.210Z,69.74
2022-10-05T03:33:26.667Z,69.60
2022-10-05T03:38:38.383Z,69.93
2022-10-05T03:43:56.304Z,70.39
2022-10-05T03:49:08.730Z,69.92
2022-10-05T03:54:22.355Z,70.12
2022-10-05T03:59:32.705Z,70.10
2022-10-05T04:04:43.135Z,70.17
2022-10-05T04:09:50.751Z,70.10
2022-10-05T04:14:58.177Z,70.22
2022-10-05T04:20:07.084Z,70.36
2022-10-05T04:25:17.684Z,70.23
2022-10-05T04:30:22.167Z,70.24
2022-10-05T04:35:41.545Z,70.24
2022-10-05T04:40:59.763Z,70.21
2022-10-05T04:46:17.000Z,70.14
2022-10-05T04:51:35.570Z,70.23
2022-10-05T04:56:43.044Z,70.21
2022-10-05T05:02:05.854Z,70.28
2022-10-05T05:07:23.961Z,70.24
2022-10-05T05:12:41.317Z,70.41
2022-10-05T05:18:07.542Z,70.46
2022-10-05T05:23:19.716Z,70.43
2022-10-05T05:28:30.753Z,70.56
2022-10-05T05:33:46.897Z,70.56
2022-10-05T05:39:05.885Z,70.65
2022-10-05T05:44:25.951Z,70.52
2022-10-05T05:49:42.689Z,70.57
2022-10-05T05:54:54.202Z,70.50
2022-10-05T06:00:05.569Z,70.44
2022-10-05T06:05:29.039Z,70.41
2022-10-05T06:10:42.605Z,70.63
2022-10-05T06:15:54.139Z,70.55
2022-10-05T06:21:01.802Z,70.56
2022-10-05T06:26:24.401Z,70.37
2022-10-05T06:31:44.371Z,70.65
2022-10-05T06:36:52.294Z,70.39
2022-10-05T06:42:14.677Z,70.53
2022-10-05T06:47:45.879Z,70.48
2022-10-05T06:53:33.192Z,69.99
2022-10-05T06:58:52.354Z,68.60
2022-10-05T07:04:10.781Z,69.17
2022-10-05T07:09:27.577Z,68.85
2022-10-05T07:14:52.769Z,68.83
2022-10-05T07:20:04.807Z,68.67
2022-10-05T07:25:14.326Z,68.67
2022-10-05T07:30:21.138Z,68.64
2022-10-05T07:35:54.156Z,68.65
2022-10-05T07:41:03.992Z,68.76
2022-10-05T07:46:18.137Z,68.71
2022-10-05T07:51:30.116Z,68.55
2022-10-05T07:56:41.105Z,68.59
2022-10-05T08:01:51.911Z,68.55
2022-10-05T08:06:58.849Z,68.58
2022-10-05T08:12:10.579Z,68.60
2022-10-05T08:17:25.425Z,68.59
2022-10-05T08:22:32.875Z,68.56
2022-10-05T08:27:47.134Z,68.58
2022-10-05T08:32:57.010Z,68.55
2022-10-05T08:37:59.811Z,68.54
2022-10-05T08:43:28.762Z,68.49
2022-10-05T08:48:59.123Z,63.56
2022-10-05T08:54:34.463Z,62.45
2022-10-05T09:00:05.146Z,62.79
2022-10-05T09:05:40.711Z,63.74
2022-10-05T09:11:04.723Z,63.52
2022-10-05T09:16:28.271Z,64.19
2022-10-05T09:21:42.341Z,64.37
2022-10-05T09:26:54.137Z,64.57
2022-10-05T09:32:20.457Z,64.71
2022-10-05T09:37:54.810Z,65.08
2022-10-05T09:43:21.073Z,65.32
2022-10-05T09:48:50.464Z,66.00
2022-10-05T09:54:23.224Z,65.63
2022-10-05T09:59:46.040Z,65.88
2022-10-05T10:05:24.831Z,66.20
2022-10-05T10:11:00.552Z,65.99
2022-10-05T10:16:13.783Z,66.21
2022-10-05T10:21:43.282Z,66.28
2022-10-05T10:27:05.383Z,65.96
2022-10-05T10:32:33.034Z,66.30
2022-10-05T10:38:04.063Z,66.46
2022-10-05T10:43:30.352Z,66.42
2022-10-05T10:48:58.407Z,67.10
2022-10-05T10:54:38.320Z,67.21
2022-10-05T11:00:31.911Z,67.78
2022-10-05T11:06:07.497Z,67.48
2022-10-05T11:11:39.685Z,66.98
2022-10-05T11:17:17.448Z,66.05
2022-10-05T11:22:35.937Z,65.19
2022-10-05T11:27:59.981Z,64.88
2022-10-05T11:33:43.031Z,64.39
2022-10-05T11:39:17.332Z,64.07
2022-10-05T11:44:39.709Z,64.10
2022-10-05T11:49:48.038Z,64.01
2022-10-05T11:55:11.088Z,64.19
2022-10-05T12:00:18.858Z,63.83
2022-10-05T12:05:25.824Z,63.70
2022-10-05T12:10:35.827Z,63.07
2022-10-05T12:15:48.031Z,63.73
2022-10-05T12:20:55.620Z,63.40
2022-10-05T12:26:06.204Z,63.33
2022-10-05T12:31:23.728Z,61.97
2022-10-05T12:36:52.529Z,61.20
2022-10-05T12:42:10.819Z,61.60
2022-10-05T12:47:19.847Z,61.53
2022-10-05T12:52:35.352Z,61.66
2022-10-05T12:57:47.466Z,61.68
2022-10-05T13:02:51.817Z,61.83
2022-10-05T13:08:08.305Z,61.77
2022-10-05T13:13:35.475Z,62.32
2022-10-05T13:18:50.064Z,62.52
2022-10-05T13:24:00.642Z,63.27
2022-10-05T13:29:16.237Z,62.60
2022-10-05T13:34:32.022Z,62.61
2022-10-05T13:39:50.110Z,62.94
2022-10-05T13:45:00.356Z,61.96
2022-10-05T13:50:06.966Z,61.97
2022-10-05T13:55:21.922Z,61.47
2022-10-05T14:00:27.472Z,61.79
2022-10-05T14:05:31.814Z,62.39
2022-10-05T14:10:38.452Z,62.63
2022-10-05T14:15:42.625Z,62.95
2022-10-05T14:20:59.610Z,62.96
2022-10-05T14:26:04.530Z,63.37
2022-10-05T14:31:15.550Z,63.54
2022-10-05T14:36:35.954Z,63.49
2022-10-05T14:41:47.162Z,63.56
2022-10-05T14:46:55.391Z,63.41
2022-10-05T14:51:58.620Z,63.37
2022-10-05T14:57:13.670Z,62.79
2022-10-05T15:02:42.243Z,62.45
2022-10-05T15:07:49.155Z,62.33
2022-10-05T15:12:54.995Z,61.80
2022-10-05T15:18:03.133Z,61.60
2022-10-05T15:23:24.410Z,62.40
2022-10-05T15:28:37.195Z,62.38
2022-10-05T15:33:51.305Z,62.82
2022-10-05T15:39:04.700Z,62.63
2022-10-05T15:44:16.448Z,63.18
2022-10-05T15:49:30.550Z,63.52
2022-10-05T15:55:12.612Z,64.23
2022-10-05T16:00:18.665Z,64.54
2022-10-05T16:05:51.246Z,64.71
2022-10-05T16:10:54.073Z,65.29
2022-10-05T16:16:17.212Z,65.55
2022-10-05T16:21:30.210Z,63.06
2022-10-05T16:26:48.576Z,64.28
2022-10-05T16:31:58.120Z,65.11
2022-10-05T16:37:10.534Z,65.11
2022-10-05T16:42:26.430Z,65.25
2022-10-05T16:47:39.192Z,65.43
2022-10-05T16:52:48.794Z,65.70
2022-10-05T16:57:56.647Z,66.07
2022-10-05T17:03:14.719Z,65.96
2022-10-05T17:08:45.408Z,65.71
2022-10-05T17:14:01.313Z,65.70
2022-10-05T17:19:20.163Z,65.52
2022-10-05T17:24:36.246Z,65.65
2022-10-05T17:29:51.713Z,65.62
2022-10-05T17:35:22.142Z,65.37
2022-10-05T17:40:36.097Z,65.44
2022-10-05T17:46:00.635Z,65.57
2022-10-05T17:51:29.865Z,65.54
2022-10-05T17:57:12.245Z,65.52
2022-10-05T18:02:22.000Z,65.28
2022-10-05T18:07:25.472Z,65.07
2022-10-05T18:12:50.262Z,65.13
2022-10-05T18:17:56.058Z,65.14
2022-10-05T18:23:35.256Z,65.20
2022-10-05T18:28:53.867Z,65.08
2022-10-05T18:34:16.842Z,65.06
2022-10-05T18:39:37.862Z,65.17
2022-10-05T18:44:47.166Z,65.10
2022-10-05T18:49:58.571Z,65.26
2022-10-05T18:55:15.395Z,65.07
2022-10-05T19:00:21.150Z,65.24
2022-10-05T19:05:48.011Z,64.80
2022-10-05T19:10:56.126Z,64.92
2022-10-05T19:16:19.304Z,64.99
2022-10-05T19:21:34.409Z,64.74
2022-10-05T19:26:53.624Z,64.41
2022-10-05T19:32:04.321Z,64.79
2022-10-05T19:37:14.936Z,64.45
2022-10-05T19:42:46.044Z,64.66
2022-10-05T19:48:02.566Z,64.73
2022-10-05T19:53:13.234Z,64.72
2022-10-05T19:58:22.071Z,64.69
2022-10-05T20:03:29.104Z,64.43
2022-10-05T20:08:39.551Z,64.40
2022-10-05T20:13:44.136Z,64.37
2022-10-05T20:19:07.857Z,64.27
2022-10-05T20:24:12.397Z,64.25
2022-10-05T20:29:14.996Z,64.51
2022-10-05T20:34:18.986Z,64.56
2022-10-05T20:39:21.604Z,64.35
2022-10-05T20:44:24.461Z,64.36
2022-10-05T20:49:31.006Z,64.10
2022-10-05T20:54:33.869Z,64.20
2022-10-05T20:59:37.503Z,64.42
2022-10-05T21:04:46.627Z,64.30
2022-10-05T21:09:49.584Z,64.32
2022-10-05T21:14:52.922Z,64.35
2022-10-05T21:19:57.055Z,64.30
2022-10-05T21:24:59.672Z,64.27
2022-10-05T21:30:02.374Z,64.16
2022-10-05T21:35:07.005Z,64.24
2022-10-05T21:40:10.503Z,64.35
2022-10-05T21:45:13.085Z,64.47
2022-10-05T21:50:17.500Z,64.28
2022-10-05T21:55:21.138Z,64.12
2022-10-05T22:00:23.862Z,64.21
2022-10-05T22:05:27.846Z,64.12
2022-10-05T22:10:31.390Z,64.51
2022-10-05T22:15:34.165Z,64.51
2022-10-05T22:20:38.288Z,64.58
2022-10-05T22:25:41.437Z,64.53
2022-10-05T22:30:45.994Z,64.85
2022-10-05T22:35:50.384Z,64.81
2022-10-05T22:40:53.061Z,64.94
2022-10-05T22:45:56.947Z,65.12
2022-10-05T22:51:00.965Z,65.17
2022-10-05T22:56:07.717Z,65.21
2022-10-05T23:01:13.410Z,65.28
2022-10-05T23:06:20.051Z,65.56
2022-10-05T23:11:25.806Z,65.75
2022-10-05T23:16:29.654Z,65.92
2022-10-05T23:21:33.793Z,65.86
2022-10-05T23:26:36.763Z,66.17
2022-10-05T23:31:39.366Z,66.27
2022-10-05T23:36:43.401Z,66.63
2022-10-05T23:41:46.055Z,66.74
2022-10-05T23:46:48.624Z,66.90
2022-10-05T23:51:52.685Z,66.96
2022-10-05T23:56:55.247Z,67.11
